createdAt,value
2022-10-07T00:00:17.180Z,42.25
2022-10-07T00:02:46.074Z,40.85
2022-10-07T00:05:15.309Z,39.97
2022-10-07T00:07:44.695Z,41.53
2022-10-07T00:10:14.200Z,43.25
2022-10-07T00:12:43.470Z,43.80
2022-10-07T00:15:13.330Z,44.05
2022-10-07T00:17:42.697Z,44.65
2022-10-07T00:20:14.454Z,42.25
2022-10-07T00:22:44.690Z,44.65
2022-10-07T00:25:13.742Z,43.15
2022-10-07T00:27:43.682Z,38.47
2022-10-07T00:30:13.336Z,39.75
2022-10-07T00:32:45.047Z,37.30
2022-10-07T00:35:17.020Z,33.20
2022-10-07T00:37:46.573Z,33.42
2022-10-07T00:40:16.062Z,32.47
2022-10-07T00:42:45.427Z,43.60
2022-10-07T00:45:20.383Z,42.78
2022-10-07T00:47:52.656Z,40.92
2022-10-07T00:53:03.087Z,45.42
2022-10-07T00:55:34.246Z,43.42
2022-10-07T00:58:08.929Z,43.33
2022-10-07T01:00:40.620Z,41.30
2022-10-07T01:05:42.786Z,42.85
2022-10-07T01:08:15.169Z,44.97
2022-10-07T01:11:04.722Z,43.25
2022-10-07T01:13:44.500Z,40.63
2022-10-07T01:16:14.986Z,38.35
2022-10-07T01:18:55.763Z,38.88
2022-10-07T01:21:43.647Z,38.50
2022-10-07T01:24:36.436Z,39.28
2022-10-07T01:27:26.019Z,37.83
2022-10-07T01:30:04.627Z,37.38
2022-10-07T01:32:38.394Z,42.17
2022-10-07T01:35:17.134Z,41.60
2022-10-07T01:37:53.581Z,44.35
2022-10-07T01:40:31.823Z,50.63
2022-10-07T01:43:03.265Z,65.05
2022-10-07T01:45:34.084Z,66.22
2022-10-07T01:48:05.442Z,55.78
2022-10-07T01:50:37.505Z,54.40
2022-10-07T01:53:25.322Z,49.67
2022-10-07T01:56:18.317Z,45.80
2022-10-07T01:59:22.339Z,48.22
2022-10-07T02:02:17.845Z,75.63
2022-10-07T02:05:15.123Z,80.88
2022-10-07T02:07:55.284Z,89.97
2022-10-07T02:10:48.296Z,94.07
2022-10-07T02:13:32.976Z,80.00
2022-10-07T02:16:12.449Z,69.28
2022-10-07T02:18:51.611Z,64.97
2022-10-07T02:21:26.881Z,68.20
2022-10-07T02:23:58.439Z,66.95
2022-10-07T02:29:03.871Z,64.47
2022-10-07T02:31:37.159Z,72.38
2022-10-07T02:36:48.069Z,91.50
2022-10-07T02:39:18.159Z,92.65
2022-10-07T02:42:05.069Z,93.63
2022-10-07T02:44:47.785Z,81.57
2022-10-07T02:49:58.527Z,76.72
2022-10-07T02:52:32.641Z,75.75
2022-10-07T02:55:09.279Z,71.93
2022-10-07T02:57:44.153Z,75.57
2022-10-07T03:00:15.984Z,71.20
2022-10-07T03:03:06.424Z,71.05
2022-10-07T03:05:49.452Z,71.32
2022-10-07T03:08:22.444Z,67.88
2022-10-07T03:10:52.726Z,66.90
2022-10-07T03:13:22.317Z,57.17
2022-10-07T03:15:55.987Z,56.35
2022-10-07T03:18:29.679Z,55.42
2022-10-07T03:21:21.983Z,56.17
2022-10-07T03:26:30.600Z,42.03
2022-10-07T03:29:01.816Z,40.97
2022-10-07T03:31:32.359Z,38.90
2022-10-07T03:34:03.646Z,37.80
2022-10-07T03:36:34.128Z,36.05
2022-10-07T03:39:05.264Z,32.17
2022-10-07T03:41:35.968Z,34.75
2022-10-07T03:44:05.764Z,33.50
2022-10-07T03:46:36.376Z,34.47
2022-10-07T03:49:06.552Z,36.70
2022-10-07T03:51:37.428Z,35.80
2022-10-07T03:56:40.734Z,32.58
2022-10-07T03:59:11.253Z,33.33
2022-10-07T04:01:42.044Z,33.90
2022-10-07T04:04:11.998Z,37.35
2022-10-07T04:06:44.567Z,36.05
2022-10-07T04:09:16.926Z,35.25
2022-10-07T04:11:46.942Z,34.53
2022-10-07T04:14:18.230Z,38.47
2022-10-07T04:16:48.014Z,40.78
2022-10-07T04:19:18.336Z,44.08
2022-10-07T04:21:48.226Z,39.35
2022-10-07T04:24:18.262Z,41.60
2022-10-07T04:26:48.008Z,38.80
2022-10-07T04:29:17.984Z,41.67
2022-10-07T04:31:49.164Z,43.90
2022-10-07T04:34:20.009Z,45.08
2022-10-07T04:36:50.230Z,43.63
2022-10-07T04:39:19.914Z,44.88
2022-10-07T04:41:58.841Z,44.20
2022-10-07T04:44:33.507Z,46.80
2022-10-07T04:47:09.837Z,47.17
2022-10-07T04:49:41.116Z,46.90
2022-10-07T04:52:12.593Z,48.85
2022-10-07T04:54:44.439Z,49.38
2022-10-07T04:57:17.560Z,50.60
2022-10-07T04:59:50.009Z,49.20
2022-10-07T05:02:24.062Z,49.60
2022-10-07T05:04:54.187Z,64.10
2022-10-07T05:07:24.074Z,68.30
2022-10-07T05:09:53.869Z,68.03
2022-10-07T05:12:23.985Z,58.10
2022-10-07T05:14:53.639Z,63.00
2022-10-07T05:17:24.730Z,68.90
2022-10-07T05:19:54.561Z,74.22
2022-10-07T05:22:24.204Z,71.95
2022-10-07T05:24:57.659Z,75.15
2022-10-07T05:27:30.273Z,75.25
2022-10-07T05:30:01.899Z,72.60
2022-10-07T05:32:34.188Z,77.22
2022-10-07T05:35:04.827Z,81.70
2022-10-07T05:37:35.729Z,85.57
2022-10-07T05:40:07.202Z,84.13
2022-10-07T05:45:29.109Z,78.78
2022-10-07T05:48:00.456Z,83.57
2022-10-07T05:50:30.600Z,88.38
2022-10-07T05:53:00.833Z,84.82
2022-10-07T05:55:35.666Z,81.82
2022-10-07T05:58:08.267Z,81.78
2022-10-07T06:00:42.931Z,82.55
2022-10-07T06:03:13.224Z,83.75
2022-10-07T06:05:48.175Z,86.28
2022-10-07T06:08:23.538Z,92.57
2022-10-07T06:11:19.680Z,89.07
2022-10-07T06:13:52.064Z,96.78
2022-10-07T06:16:23.238Z,89.65
2022-10-07T06:21:29.456Z,88.40
2022-10-07T06:24:04.032Z,95.47
2022-10-07T06:26:36.850Z,101.82
2022-10-07T06:29:06.800Z,99.85
2022-10-07T06:31:37.371Z,100.80
2022-10-07T06:34:08.435Z,101.80
2022-10-07T06:36:39.996Z,102.05
2022-10-07T06:39:10.082Z,103.13
2022-10-07T06:41:43.268Z,103.35
2022-10-07T06:44:35.703Z,105.07
2022-10-07T06:47:11.431Z,99.88
2022-10-07T06:49:44.806Z,96.40
2022-10-07T06:52:15.406Z,98.15
2022-10-07T06:54:46.231Z,100.80
2022-10-07T06:57:43.863Z,110.35
2022-10-07T07:00:06.343Z,109.75
2022-10-07T07:02:38.136Z,112.65
2022-10-07T07:05:09.606Z,113.45
2022-10-07T07:07:39.769Z,113.80
2022-10-07T07:10:10.612Z,104.93
2022-10-07T07:12:43.500Z,100.38
2022-10-07T07:15:13.363Z,103.38
2022-10-07T07:17:42.890Z,101.32
2022-10-07T07:20:14.769Z,93.97
2022-10-07T07:22:44.431Z,100.63
2022-10-07T07:25:13.629Z,94.43
2022-10-07T07:27:43.438Z,86.80
2022-10-07T07:30:14.689Z,83.95
2022-10-07T07:32:46.857Z,77.65
2022-10-07T07:35:16.048Z,76.63
2022-10-07T07:37:49.250Z,80.03
2022-10-07T07:40:21.149Z,79.50
2022-10-07T07:42:51.330Z,75.80
2022-10-07T07:45:20.930Z,70.72
2022-10-07T07:47:51.155Z,78.13
2022-10-07T07:50:23.385Z,64.30
2022-10-07T07:52:57.177Z,68.60
2022-10-07T07:55:27.524Z,70.32
2022-10-07T07:58:01.112Z,66.13
2022-10-07T08:00:40.771Z,68.00
2022-10-07T08:03:10.763Z,66.78
2022-10-07T08:05:39.585Z,62.30
2022-10-07T08:08:08.852Z,69.68
2022-10-07T08:10:40.960Z,64.85
2022-10-07T08:13:13.844Z,57.10
2022-10-07T08:15:43.119Z,58.25
2022-10-07T08:18:14.352Z,63.13
2022-10-07T08:23:13.322Z,57.72
2022-10-07T08:25:42.629Z,57.30
2022-10-07T08:28:11.880Z,56.38
2022-10-07T08:30:40.992Z,55.28
2022-10-07T08:33:10.011Z,54.72
2022-10-07T08:35:39.272Z,50.10
2022-10-07T08:38:11.395Z,48.00
2022-10-07T08:40:50.900Z,54.95
2022-10-07T08:43:24.750Z,53.58
2022-10-07T08:46:05.640Z,51.17
2022-10-07T08:48:39.845Z,56.33
2022-10-07T08:51:22.732Z,58.58
2022-10-07T08:53:55.999Z,56.47
2022-10-07T08:56:26.956Z,56.53
2022-10-07T08:59:11.002Z,54.70
2022-10-07T09:01:50.742Z,53.47
2022-10-07T09:05:01.680Z,53.40
2022-10-07T09:07:48.948Z,50.70
2022-10-07T09:10:32.259Z,56.17
2022-10-07T09:13:33.620Z,54.78
2022-10-07T09:16:17.411Z,56.97
2022-10-07T09:18:54.374Z,53.10
2022-10-07T09:21:33.239Z,57.30
2022-10-07T09:24:17.403Z,60.00
2022-10-07T09:26:47.659Z,54.50
2022-10-07T09:29:26.000Z,55.20
2022-10-07T09:32:07.065Z,54.08
2022-10-07T09:34:46.253Z,53.55
2022-10-07T09:37:28.868Z,55.17
2022-10-07T09:40:23.840Z,51.78
2022-10-07T09:42:52.998Z,53.95
2022-10-07T09:45:32.519Z,53.95
2022-10-07T09:48:08.664Z,52.13
2022-10-07T09:50:44.413Z,49.70
2022-10-07T09:53:33.004Z,49.22
2022-10-07T09:56:02.461Z,49.58
2022-10-07T09:58:33.501Z,53.47
2022-10-07T10:01:04.028Z,50.37
2022-10-07T10:03:35.533Z,48.17
2022-10-07T10:06:06.799Z,45.40
2022-10-07T10:08:41.968Z,42.63
2022-10-07T10:11:20.185Z,43.03
2022-10-07T10:13:52.074Z,43.83
2022-10-07T10:16:27.488Z,46.30
2022-10-07T10:19:05.785Z,46.00
2022-10-07T10:21:42.780Z,41.63
2022-10-07T10:24:40.892Z,38.53
2022-10-07T10:27:29.482Z,40.70
2022-10-07T10:30:11.287Z,40.75
2022-10-07T10:33:05.519Z,41.00
2022-10-07T10:36:01.454Z,39.58
2022-10-07T10:38:48.685Z,38.85
2022-10-07T10:41:29.855Z,39.92
2022-10-07T10:44:08.116Z,39.58
2022-10-07T10:46:58.873Z,39.20
2022-10-07T10:49:36.073Z,37.33
2022-10-07T10:52:19.129Z,38.45
2022-10-07T10:55:37.805Z,38.55
2022-10-07T10:58:27.051Z,38.58
2022-10-07T11:01:22.191Z,39.33
2022-10-07T11:04:00.368Z,37.22
2022-10-07T11:06:34.282Z,37.60
2022-10-07T11:09:05.176Z,38.33
2022-10-07T11:11:36.603Z,40.17
2022-10-07T11:14:22.019Z,37.97
2022-10-07T11:16:59.990Z,40.30
2022-10-07T11:19:39.676Z,42.42
2022-10-07T11:22:18.961Z,40.75
2022-10-07T11:24:56.158Z,41.42
2022-10-07T11:27:31.192Z,41.40
2022-10-07T11:30:21.016Z,40.55
2022-10-07T11:33:16.294Z,42.22
2022-10-07T11:35:53.077Z,40.78
2022-10-07T11:38:31.136Z,40.53
2022-10-07T11:41:17.831Z,40.75
2022-10-07T11:43:55.000Z,41.45
2022-10-07T11:46:37.265Z,42.13
2022-10-07T11:49:30.183Z,42.47
2022-10-07T11:52:05.357Z,41.95
2022-10-07T11:54:52.186Z,42.50
2022-10-07T11:57:25.841Z,43.50
2022-10-07T12:00:09.244Z,43.25
2022-10-07T12:02:46.798Z,48.00
2022-10-07T12:05:51.417Z,46.78
2022-10-07T12:08:34.168Z,47.45
2022-10-07T12:11:38.489Z,51.33
2022-10-07T12:14:34.195Z,49.80
2022-10-07T12:17:20.328Z,46.85
2022-10-07T12:20:28.084Z,47.55
2022-10-07T12:23:23.152Z,47.97
2022-10-07T12:26:04.251Z,49.08
2022-10-07T12:28:43.368Z,50.55
2022-10-07T12:31:19.676Z,51.28
2022-10-07T12:33:48.863Z,46.45
2022-10-07T12:36:23.290Z,47.35
2022-10-07T12:38:59.539Z,48.40
2022-10-07T12:41:40.616Z,46.60
2022-10-07T12:44:16.282Z,48.15
2022-10-07T12:46:54.016Z,48.92
2022-10-07T12:49:43.699Z,52.03
2022-10-07T12:52:17.126Z,52.58
2022-10-07T12:55:01.374Z,50.58
2022-10-07T12:57:39.790Z,49.40
2022-10-07T13:00:38.496Z,47.20
2022-10-07T13:03:47.921Z,50.13
2022-10-07T13:06:33.057Z,44.45
2022-10-07T13:09:37.649Z,45.65
2022-10-07T13:12:24.871Z,46.00
2022-10-07T13:15:18.052Z,45.08
2022-10-07T13:18:16.478Z,44.75
2022-10-07T13:20:45.471Z,44.50
2022-10-07T13:23:24.617Z,44.75
2022-10-07T13:25:58.807Z,43.45
2022-10-07T13:28:53.049Z,41.05
2022-10-07T13:31:28.091Z,40.33
2022-10-07T13:34:00.039Z,44.42
2022-10-07T13:36:31.338Z,40.47
2022-10-07T13:39:19.926Z,40.63
2022-10-07T13:41:52.065Z,40.92
2022-10-07T13:44:22.346Z,40.78
2022-10-07T13:46:54.733Z,41.53
2022-10-07T13:49:28.830Z,41.03
2022-10-07T13:52:02.742Z,39.65
2022-10-07T13:54:35.263Z,39.38
2022-10-07T13:57:07.736Z,37.20
2022-10-07T13:59:40.052Z,36.15
2022-10-07T14:02:16.353Z,38.15
2022-10-07T14:05:32.342Z,35.63
2022-10-07T14:08:15.976Z,36.13
2022-10-07T14:11:21.233Z,35.47
2022-10-07T14:13:50.548Z,34.22
2022-10-07T14:16:25.474Z,35.78
2022-10-07T14:18:54.620Z,35.60
2022-10-07T14:21:23.608Z,34.03
2022-10-07T14:23:52.755Z,34.33
2022-10-07T14:26:22.139Z,33.63
2022-10-07T14:28:51.150Z,34.38
2022-10-07T14:31:40.666Z,34.45
2022-10-07T14:34:40.569Z,32.45
2022-10-07T14:37:19.698Z,34.85
2022-10-07T14:39:51.052Z,34.15
2022-10-07T14:42:33.278Z,34.03
2022-10-07T14:45:05.655Z,33.78
2022-10-07T14:47:39.381Z,34.75
2022-10-07T14:50:08.783Z,34.38
2022-10-07T14:52:50.394Z,35.08
2022-10-07T14:55:26.750Z,34.90
2022-10-07T14:57:56.212Z,33.88
2022-10-07T15:00:28.609Z,37.22
2022-10-07T15:02:57.867Z,34.35
2022-10-07T15:05:27.746Z,35.05
2022-10-07T15:07:56.874Z,33.40
2022-10-07T15:10:27.721Z,35.65
2022-10-07T15:13:00.467Z,36.35
2022-10-07T15:15:29.595Z,35.72
2022-10-07T15:17:58.442Z,36.15
2022-10-07T15:20:28.467Z,34.63
2022-10-07T15:22:58.121Z,34.25
2022-10-07T15:25:27.211Z,37.47
2022-10-07T15:27:56.536Z,35.78
2022-10-07T15:30:26.838Z,35.78
2022-10-07T15:32:59.947Z,36.47
2022-10-07T15:35:29.221Z,37.15
2022-10-07T15:37:58.182Z,34.72
2022-10-07T15:40:27.538Z,35.58
2022-10-07T15:42:58.656Z,35.28
2022-10-07T15:45:28.399Z,35.80
2022-10-07T15:48:00.521Z,35.00
2022-10-07T15:50:30.025Z,35.85
2022-10-07T15:52:58.885Z,33.42
2022-10-07T15:55:28.155Z,33.72
2022-10-07T15:57:57.798Z,34.60
2022-10-07T16:00:26.806Z,34.45
2022-10-07T16:03:00.481Z,35.17
2022-10-07T16:05:32.244Z,33.33
2022-10-07T16:08:03.815Z,34.10
2022-10-07T16:10:38.272Z,34.92
2022-10-07T16:13:07.275Z,31.17
2022-10-07T16:15:37.734Z,34.10
2022-10-07T16:18:07.570Z,33.90
2022-10-07T16:20:45.188Z,32.97
2022-10-07T16:23:14.448Z,32.92
2022-10-07T16:25:43.215Z,34.22
2022-10-07T16:28:30.327Z,33.97
2022-10-07T16:30:59.566Z,33.75
2022-10-07T16:33:28.411Z,33.35
2022-10-07T16:35:57.451Z,36.28
2022-10-07T16:38:26.253Z,35.85
2022-10-07T16:40:55.992Z,34.25
2022-10-07T16:43:24.973Z,33.85
2022-10-07T16:45:54.008Z,34.90
2022-10-07T16:48:22.970Z,35.97
2022-10-07T16:50:51.967Z,35.45
2022-10-07T16:53:20.843Z,34.38
2022-10-07T16:55:49.721Z,34.05
2022-10-07T16:58:18.541Z,35.30
2022-10-07T17:00:50.872Z,35.03
2022-10-07T17:03:23.467Z,33.33
2022-10-07T17:05:59.943Z,33.50
2022-10-07T17:08:37.716Z,34.08
2022-10-07T17:11:10.916Z,32.00
2022-10-07T17:13:40.597Z,32.03
2022-10-07T17:16:10.136Z,32.92
2022-10-07T17:18:39.296Z,33.05
2022-10-07T17:21:08.179Z,34.85
2022-10-07T17:23:37.321Z,34.10
2022-10-07T17:26:10.005Z,32.03
2022-10-07T17:28:39.072Z,33.45
2022-10-07T17:31:10.282Z,34.22
2022-10-07T17:33:44.067Z,32.77
2022-10-07T17:36:14.327Z,33.58
2022-10-07T17:38:45.678Z,33.35
2022-10-07T17:41:26.879Z,34.35
2022-10-07T17:43:58.634Z,32.35
2022-10-07T17:46:30.815Z,31.33
2022-10-07T17:51:32.098Z,30.85
2022-10-07T17:54:02.989Z,32.53
2022-10-07T17:56:33.288Z,31.52
2022-10-07T17:59:03.641Z,30.63
2022-10-07T18:01:34.901Z,32.42
2022-10-07T18:04:07.194Z,33.13
2022-10-07T18:06:38.397Z,32.38
2022-10-07T18:09:09.331Z,33.83
2022-10-07T18:11:56.724Z,34.47
2022-10-07T18:14:43.838Z,33.78
2022-10-07T18:17:13.102Z,31.95
2022-10-07T18:19:42.310Z,33.92
2022-10-07T18:22:11.756Z,34.63
2022-10-07T18:24:40.790Z,32.20
2022-10-07T18:27:10.100Z,32.03
2022-10-07T18:29:41.477Z,33.60
2022-10-07T18:32:10.651Z,33.40
2022-10-07T18:34:39.544Z,34.33
2022-10-07T18:37:08.764Z,34.25
2022-10-07T18:39:37.883Z,33.88
2022-10-07T18:42:06.871Z,35.88
2022-10-07T18:44:37.085Z,33.63
2022-10-07T18:47:06.270Z,33.95
2022-10-07T18:49:35.894Z,36.08
2022-10-07T18:52:08.360Z,32.72
2022-10-07T18:54:38.874Z,33.50
2022-10-07T18:57:07.863Z,32.70
2022-10-07T18:59:36.660Z,33.55
2022-10-07T19:02:05.947Z,34.67
2022-10-07T19:04:35.033Z,34.67
2022-10-07T19:07:06.087Z,33.50
2022-10-07T19:09:35.306Z,33.65
2022-10-07T19:12:04.207Z,31.67
2022-10-07T19:14:35.439Z,33.03
2022-10-07T19:17:04.373Z,32.03
2022-10-07T19:19:35.170Z,34.58
2022-10-07T19:22:05.184Z,32.33
2022-10-07T19:24:53.378Z,32.22
2022-10-07T19:27:22.946Z,34.25
2022-10-07T19:29:52.320Z,32.97
2022-10-07T19:32:22.174Z,34.85
2022-10-07T19:34:52.730Z,35.05
2022-10-07T19:37:21.768Z,34.40
2022-10-07T19:39:51.052Z,36.47
2022-10-07T19:42:20.286Z,32.90
2022-10-07T19:44:49.587Z,32.78
2022-10-07T19:47:19.273Z,33.83
2022-10-07T19:49:50.260Z,34.50
2022-10-07T19:52:19.807Z,32.90
2022-10-07T19:54:50.758Z,32.88
2022-10-07T19:57:19.915Z,33.60
2022-10-07T19:59:48.975Z,33.13
2022-10-07T20:02:18.603Z,34.10
2022-10-07T20:04:48.311Z,33.08
2022-10-07T20:07:22.142Z,33.72
2022-10-07T20:09:51.255Z,33.88
2022-10-07T20:12:20.438Z,35.38
2022-10-07T20:14:49.536Z,34.63
2022-10-07T20:17:19.276Z,34.75
2022-10-07T20:19:48.490Z,34.50
2022-10-07T20:22:17.653Z,35.80
2022-10-07T20:24:46.870Z,35.47
2022-10-07T20:27:15.661Z,33.10
2022-10-07T20:29:59.324Z,34.25
2022-10-07T20:32:30.542Z,34.30
2022-10-07T20:34:59.960Z,33.60
2022-10-07T20:37:29.079Z,32.90
2022-10-07T20:40:16.245Z,33.13
2022-10-07T20:42:47.078Z,32.50
2022-10-07T20:45:16.540Z,32.88
2022-10-07T20:47:46.170Z,33.10
2022-10-07T20:50:15.212Z,33.80
2022-10-07T20:52:46.224Z,31.98
2022-10-07T20:55:15.593Z,32.47
2022-10-07T20:57:44.329Z,31.95
2022-10-07T21:00:17.801Z,33.70
2022-10-07T21:02:47.198Z,30.35
2022-10-07T21:05:16.250Z,33.25
2022-10-07T21:07:45.548Z,32.28
2022-10-07T21:10:14.616Z,32.17
2022-10-07T21:12:45.681Z,32.55
2022-10-07T21:15:14.828Z,32.55
2022-10-07T21:17:45.911Z,30.85
2022-10-07T21:20:15.096Z,31.63
2022-10-07T21:22:44.540Z,33.03
2022-10-07T21:25:14.139Z,31.00
2022-10-07T21:27:43.519Z,31.27
2022-10-07T21:30:13.345Z,32.03
2022-10-07T21:32:42.379Z,32.20
2022-10-07T21:35:12.444Z,32.25
2022-10-07T21:37:41.358Z,31.42
2022-10-07T21:40:11.077Z,31.98
2022-10-07T21:42:40.132Z,32.92
2022-10-07T21:45:10.242Z,31.83
2022-10-07T21:47:39.322Z,31.63
2022-10-07T21:50:09.591Z,31.70
2022-10-07T21:52:43.141Z,32.38
2022-10-07T21:55:12.287Z,34.00
2022-10-07T21:57:43.707Z,32.05
2022-10-07T22:00:13.508Z,31.98
2022-10-07T22:02:43.037Z,32.55
2022-10-07T22:05:15.556Z,32.20
2022-10-07T22:08:03.102Z,33.75
2022-10-07T22:10:32.698Z,32.00
2022-10-07T22:13:02.417Z,33.38
2022-10-07T22:15:32.378Z,31.58
2022-10-07T22:18:01.830Z,33.38
2022-10-07T22:20:31.761Z,34.30
2022-10-07T22:23:01.754Z,34.55
2022-10-07T22:25:31.932Z,34.25
2022-10-07T22:28:00.932Z,36.33
2022-10-07T22:30:30.093Z,35.90
2022-10-07T22:32:59.267Z,35.20
2022-10-07T22:35:33.911Z,34.92
2022-10-07T22:38:03.171Z,36.10
2022-10-07T22:40:32.077Z,34.65
2022-10-07T22:43:01.195Z,35.78
2022-10-07T22:45:30.263Z,32.80
2022-10-07T22:47:59.891Z,34.00
2022-10-07T22:50:28.826Z,34.30
2022-10-07T22:52:57.827Z,35.65
2022-10-07T22:55:27.995Z,35.88
2022-10-07T22:57:57.480Z,34.15
2022-10-07T23:00:26.340Z,35.05
2022-10-07T23:02:55.959Z,35.30
2022-10-07T23:05:25.417Z,33.65
2022-10-07T23:07:54.432Z,37.58
2022-10-07T23:10:24.203Z,39.38
2022-10-07T23:12:53.188Z,34.10
2022-10-07T23:15:22.053Z,35.65
2022-10-07T23:17:51.202Z,36.38
2022-10-07T23:20:20.266Z,37.00
2022-10-07T23:22:49.776Z,36.33
2022-10-07T23:25:18.574Z,40.80
2022-10-07T23:27:47.913Z,45.85
2022-10-07T23:30:16.748Z,41.88
2022-10-07T23:32:48.888Z,43.13
2022-10-07T23:35:18.392Z,40.03
2022-10-07T23:37:47.122Z,39.65
2022-10-07T23:40:16.266Z,39.70
2022-10-07T23:42:45.211Z,41.63
2022-10-07T23:45:15.481Z,45.83
2022-10-07T23:47:45.975Z,52.25
2022-10-07T23:50:15.357Z,54.38
2022-10-07T23:52:44.327Z,58.95
2022-10-07T23:55:14.064Z,62.58
2022-10-07T23:57:42.955Z,63.38
